Cary, Illinois
Current Conditions -  °F | °C
As of 4:07 PM on Monday 26 Jan 2015 (Local Time) from KPWK Reporting Station
Overcast Overcast  
Wind Chill: 19°   Ceiling: 1600
Heat Index: 26°   Visibility: 7mi
Dew Point: 21°   Wind: 6mph
Humidity: 81%   Direction: 160°SSE
Pressure: 29.89"   Gusts: NA
Location:  42.2°N, 88.25°W
Report Text: KPWK 262207Z 16005KT 7SM BKN016 BKN037 OVC047 M03/M06 A2989 RMK AO2 SNB2157E04 P0000 T10331061
Loading
Personal Weather Stations






























Interactive Weather Map New forecast layout! Learn more

10-Day Weather Forecast

Advertisements
Track Severe Weather on mobile